Columbia — WYR2092 — position and weather

sailwx.info

Track history (hours):
 
Tides and Currents Weather Stations Pressure Air Temp Water Temp Dewpoint Dewpoint Depression Visibility Wind Speed Wind Dir Waves Ship Positions

Columbia

Owner: ALASKA, STATE OF, ANCHORAGE, AK. More information available from US FCC via Universal Licensing System and Coast Guard Vessel Documentation Center.

Last reported at 2015-May-22 12:34 UTC. Time now 2015-May-22 13:03 UTC.
Position N 48°52' W 123°04'.

Type: Ship. MMSI: 367144000.

Date/timePositionNaut miles runAvg speedWind from/ knotsBaromVisibWave heightAir tempDewpointWater temp
2015-May-22 12:34N 48°52' W 123°04'1413.9
2015-May-22 11:33N 49°01' W 123°20'1414.3
2015-May-22 10:33N 49°12' W 123°35'1413.7
2015-May-22 09:34N 49°22' W 123°50'1514.0
2015-May-22 08:30N 49°25' W 124°12'1413.8
2015-May-22 07:31N 49°32' W 124°30'1614.5
2015-May-22 06:25N 49°44' W 124°47'7713.1
2015-May-22 00:33N 50°30' W 126°23'1412.9
2015-May-21 23:26N 50°36' W 126°43'1416.3
2015-May-21 22:33N 50°45' W 127°01'1615.9
2015-May-21 21:33N 50°54' W 127°22'1616.0
2015-May-21 20:33N 51°04' W 127°41'1616.1
2015-May-21 19:34N 51°19' W 127°52'1717.1
2015-May-21 18:34N 51°36' W 127°53'  
2015-May-16 20:24N 51°32' W 127°52'1416.9
2015-May-16 19:33N 51°18' W 127°52'1515.0
2015-May-16 18:33N 51°04' W 127°41'1515.1
2015-May-16 17:34N 50°54' W 127°23'1615.8
2015-May-16 16:33N 50°46' W 127°02'1716.3
2015-May-16 15:32N 50°35' W 126°42'10415.0
2015-May-16 08:33N 49°33' W 124°31'1817.6
2015-May-16 07:33N 49°24' W 124°08'1818.1
2015-May-16 06:33N 49°17' W 123°42'1818.2
2015-May-16 05:33N 49°05' W 123°22'1818.1
2015-May-16 04:33N 48°53' W 123°01'1616.4
2015-May-16 03:33N 48°42' W 122°43'8 6.4
2015-May-16 02:17N 48°43' W 122°31'0 0.0
2015-May-16 00:23N 48°43' W 122°31'0 0.0
2015-May-15 23:05N 48°43' W 122°31'0 0.0
2015-May-15 22:29N 48°43' W 122°31'0 0.0
2015-May-15 21:29N 48°43' W 122°31'0 0.0
2015-May-15 20:26N 48°43' W 122°31'0 0.0
2015-May-15 19:29N 48°43' W 122°31'0 0.0
2015-May-15 18:17N 48°43' W 122°31'0 0.0
2015-May-15 17:29N 48°43' W 122°31'0 0.0
2015-May-15 16:29N 48°43' W 122°31'0 0.0
2015-May-15 15:29N 48°43' W 122°31'0 0.1
2015-May-15 14:33N 48°43' W 122°31'9 8.8
2015-May-15 13:33N 48°40' W 122°43'1616.2
2015-May-15 12:33N 48°51' W 123°02'1716.7
2015-May-15 11:33N 49°02' W 123°21'1616.1
2015-May-15 10:33N 49°14' W 123°38'1515.3
2015-May-15 09:33N 49°23' W 123°57'1616.0
2015-May-15 08:33N 49°26' W 124°21'1716.4
2015-May-15 07:33N 49°38' W 124°39'1616.4
2015-May-15 06:33N 49°50' W 124°57'6913.2
2015-May-15 01:21N 50°30' W 126°24'1214.7
2015-May-15 00:33N 50°33' W 126°41'1515.3
2015-May-14 23:33N 50°44' W 126°59'1616.1
2015-May-14 22:33N 50°53' W 127°19'1515.1
2015-May-14 21:33N 51°02' W 127°38'1615.8
2015-May-14 20:33N 51°15' W 127°52'33113.5
2015-May-13 20:00N 56°00' W 132°36'   320 / 111012.210.8 0.510.0 12.2
Track history (hours):
 
Tides and Currents Weather Stations Pressure Air Temp Water Temp Dewpoint Dewpoint Depression Visibility Wind Speed Wind Dir Waves Ship Positions

Columbia

Owner: ALASKA, STATE OF, ANCHORAGE, AK. More information available from US FCC via Universal Licensing System and Coast Guard Vessel Documentation Center.

Last reported at 2015-May-22 12:34 UTC. Time now 2015-May-22 13:03 UTC.
Position N 48°52' W 123°04'.

Type: Ship. MMSI: 367144000.

Date/timePositionNaut miles runAvg speedWind from/ knotsBaromVisibWave heightAir tempDewpointWater temp
2015-May-22 12:34N 48°52' W 123°04'1413.9
2015-May-22 11:33N 49°01' W 123°20'1414.3
2015-May-22 10:33N 49°12' W 123°35'1413.7
2015-May-22 09:34N 49°22' W 123°50'1514.0
2015-May-22 08:30N 49°25' W 124°12'1413.8
2015-May-22 07:31N 49°32' W 124°30'1614.5
2015-May-22 06:25N 49°44' W 124°47'7713.1
2015-May-22 00:33N 50°30' W 126°23'1412.9
2015-May-21 23:26N 50°36' W 126°43'1416.3
2015-May-21 22:33N 50°45' W 127°01'1615.9
2015-May-21 21:33N 50°54' W 127°22'1616.0
2015-May-21 20:33N 51°04' W 127°41'1616.1
2015-May-21 19:34N 51°19' W 127°52'1717.1
2015-May-21 18:34N 51°36' W 127°53'  
2015-May-16 20:24N 51°32' W 127°52'1416.9
2015-May-16 19:33N 51°18' W 127°52'1515.0
2015-May-16 18:33N 51°04' W 127°41'1515.1
2015-May-16 17:34N 50°54' W 127°23'1615.8
2015-May-16 16:33N 50°46' W 127°02'1716.3
2015-May-16 15:32N 50°35' W 126°42'10415.0
2015-May-16 08:33N 49°33' W 124°31'1817.6
2015-May-16 07:33N 49°24' W 124°08'1818.1
2015-May-16 06:33N 49°17' W 123°42'1818.2
2015-May-16 05:33N 49°05' W 123°22'1818.1
2015-May-16 04:33N 48°53' W 123°01'1616.4
2015-May-16 03:33N 48°42' W 122°43'8 6.4
2015-May-16 02:17N 48°43' W 122°31'0 0.0
2015-May-16 00:23N 48°43' W 122°31'0 0.0
2015-May-15 23:05N 48°43' W 122°31'0 0.0
2015-May-15 22:29N 48°43' W 122°31'0 0.0
2015-May-15 21:29N 48°43' W 122°31'0 0.0
2015-May-15 20:26N 48°43' W 122°31'0 0.0
2015-May-15 19:29N 48°43' W 122°31'0 0.0
2015-May-15 18:17N 48°43' W 122°31'0 0.0
2015-May-15 17:29N 48°43' W 122°31'0 0.0
2015-May-15 16:29N 48°43' W 122°31'0 0.0
2015-May-15 15:29N 48°43' W 122°31'0 0.1
2015-May-15 14:33N 48°43' W 122°31'9 8.8
2015-May-15 13:33N 48°40' W 122°43'1616.2
2015-May-15 12:33N 48°51' W 123°02'1716.7
2015-May-15 11:33N 49°02' W 123°21'1616.1
2015-May-15 10:33N 49°14' W 123°38'1515.3
2015-May-15 09:33N 49°23' W 123°57'1616.0
2015-May-15 08:33N 49°26' W 124°21'1716.4
2015-May-15 07:33N 49°38' W 124°39'1616.4
2015-May-15 06:33N 49°50' W 124°57'6913.2
2015-May-15 01:21N 50°30' W 126°24'1214.7
2015-May-15 00:33N 50°33' W 126°41'1515.3
2015-May-14 23:33N 50°44' W 126°59'1616.1
2015-May-14 22:33N 50°53' W 127°19'1515.1
2015-May-14 21:33N 51°02' W 127°38'1615.8
2015-May-14 20:33N 51°15' W 127°52'33113.5
2015-May-13 20:00N 56°00' W 132°36'   320 / 111012.210.8 0.510.0 12.2

Dump ship's entire track history